sensor_id;sensor_type;location;lat;lon;timestamp;temperature;humidity
7214;DHT22;3648;50.614;13.830;2023-07-31T00:00:06;15.60;99.90
7214;DHT22;3648;50.614;13.830;2023-07-31T00:02:34;15.60;99.90
7214;DHT22;3648;50.614;13.830;2023-07-31T00:05:01;15.60;99.90
7214;DHT22;3648;50.614;13.830;2023-07-31T00:07:28;15.60;99.90
7214;DHT22;3648;50.614;13.830;2023-07-31T00:09:56;15.60;99.90
7214;DHT22;3648;50.614;13.830;2023-07-31T00:12:23;15.60;99.90
7214;DHT22;3648;50.614;13.830;2023-07-31T00:14:50;15.60;99.90
7214;DHT22;3648;50.614;13.830;2023-07-31T00:17:18;15.60;99.90
7214;DHT22;3648;50.614;13.830;2023-07-31T00:19:44;15.50;99.90
7214;DHT22;3648;50.614;13.830;2023-07-31T00:22:11;15.40;99.90
7214;DHT22;3648;50.614;13.830;2023-07-31T00:24:38;15.40;99.90
7214;DHT22;3648;50.614;13.830;2023-07-31T00:27:07;15.40;99.90
7214;DHT22;3648;50.614;13.830;2023-07-31T00:29:34;15.40;99.90
7214;DHT22;3648;50.614;13.830;2023-07-31T00:32:01;15.40;99.90
7214;DHT22;3648;50.614;13.830;2023-07-31T00:34:27;15.40;99.90
7214;DHT22;3648;50.614;13.830;2023-07-31T00:36:54;15.40;99.90
7214;DHT22;3648;50.614;13.830;2023-07-31T00:39:21;15.30;99.90
7214;DHT22;3648;50.614;13.830;2023-07-31T00:41:49;15.30;99.90
7214;DHT22;3648;50.614;13.830;2023-07-31T00:44:17;15.30;99.90
7214;DHT22;3648;50.614;13.830;2023-07-31T00:46:44;15.30;99.90
7214;DHT22;3648;50.614;13.830;2023-07-31T00:49:11;15.20;99.90
7214;DHT22;3648;50.614;13.830;2023-07-31T00:51:38;15.30;99.90
7214;DHT22;3648;50.614;13.830;2023-07-31T00:54:06;15.30;99.90
7214;DHT22;3648;50.614;13.830;2023-07-31T00:56:33;15.30;99.90
7214;DHT22;3648;50.614;13.830;2023-07-31T00:59:00;15.30;99.90
7214;DHT22;3648;50.614;13.830;2023-07-31T01:01:28;15.30;99.90
7214;DHT22;3648;50.614;13.830;2023-07-31T01:03:56;15.30;99.90
7214;DHT22;3648;50.614;13.830;2023-07-31T01:06:29;15.30;99.90
7214;DHT22;3648;50.614;13.830;2023-07-31T01:09:02;15.20;99.90
7214;DHT22;3648;50.614;13.830;2023-07-31T01:11:33;15.20;99.90
7214;DHT22;3648;50.614;13.830;2023-07-31T01:14:00;15.20;99.90
7214;DHT22;3648;50.614;13.830;2023-07-31T01:16:29;15.20;99.90
7214;DHT22;3648;50.614;13.830;2023-07-31T01:18:56;15.20;99.90
7214;DHT22;3648;50.614;13.830;2023-07-31T01:21:41;15.20;99.90
7214;DHT22;3648;50.614;13.830;2023-07-31T01:24:28;15.20;99.90
7214;DHT22;3648;50.614;13.830;2023-07-31T01:27:02;15.10;99.90
7214;DHT22;3648;50.614;13.830;2023-07-31T01:29:36;15.10;99.90
7214;DHT22;3648;50.614;13.830;2023-07-31T01:32:06;15.10;99.90
7214;DHT22;3648;50.614;13.830;2023-07-31T01:34:35;15.20;99.90
7214;DHT22;3648;50.614;13.830;2023-07-31T01:37:02;15.20;99.90
7214;DHT22;3648;50.614;13.830;2023-07-31T01:39:29;15.10;99.90
7214;DHT22;3648;50.614;13.830;2023-07-31T01:41:58;15.10;99.90
7214;DHT22;3648;50.614;13.830;2023-07-31T01:44:25;15.10;99.90
7214;DHT22;3648;50.614;13.830;2023-07-31T01:46:51;15.20;99.90
7214;DHT22;3648;50.614;13.830;2023-07-31T01:49:18;15.20;99.90
7214;DHT22;3648;50.614;13.830;2023-07-31T01:51:45;15.10;99.90
7214;DHT22;3648;50.614;13.830;2023-07-31T01:54:12;15.10;99.90
7214;DHT22;3648;50.614;13.830;2023-07-31T01:56:39;15.10;99.90
7214;DHT22;3648;50.614;13.830;2023-07-31T01:59:07;15.10;99.90
7214;DHT22;3648;50.614;13.830;2023-07-31T02:01:34;15.10;99.90
7214;DHT22;3648;50.614;13.830;2023-07-31T02:04:01;15.00;99.90
7214;DHT22;3648;50.614;13.830;2023-07-31T02:06:28;15.10;99.90
7214;DHT22;3648;50.614;13.830;2023-07-31T02:08:55;15.00;99.90
7214;DHT22;3648;50.614;13.830;2023-07-31T02:11:22;15.00;99.90
7214;DHT22;3648;50.614;13.830;2023-07-31T02:13:49;15.00;99.90
7214;DHT22;3648;50.614;13.830;2023-07-31T02:16:17;15.00;99.90
7214;DHT22;3648;50.614;13.830;2023-07-31T02:18:44;15.00;99.90
7214;DHT22;3648;50.614;13.830;2023-07-31T02:21:11;15.00;99.90
7214;DHT22;3648;50.614;13.830;2023-07-31T02:23:38;15.00;99.90
7214;DHT22;3648;50.614;13.830;2023-07-31T02:26:04;14.90;99.90
7214;DHT22;3648;50.614;13.830;2023-07-31T02:28:31;14.90;99.90
7214;DHT22;3648;50.614;13.830;2023-07-31T02:30:58;15.00;99.90
7214;DHT22;3648;50.614;13.830;2023-07-31T02:33:26;14.90;99.90
7214;DHT22;3648;50.614;13.830;2023-07-31T02:35:53;14.90;99.90
7214;DHT22;3648;50.614;13.830;2023-07-31T02:38:20;14.90;99.90
7214;DHT22;3648;50.614;13.830;2023-07-31T02:40:46;14.90;99.90
7214;DHT22;3648;50.614;13.830;2023-07-31T02:43:13;14.90;99.90
7214;DHT22;3648;50.614;13.830;2023-07-31T02:45:40;14.90;99.90
7214;DHT22;3648;50.614;13.830;2023-07-31T02:48:07;14.90;99.90
7214;DHT22;3648;50.614;13.830;2023-07-31T02:50:35;14.90;99.90
7214;DHT22;3648;50.614;13.830;2023-07-31T02:53:02;14.90;99.90
7214;DHT22;3648;50.614;13.830;2023-07-31T02:55:29;14.90;99.90
7214;DHT22;3648;50.614;13.830;2023-07-31T02:57:56;14.90;99.90
7214;DHT22;3648;50.614;13.830;2023-07-31T03:00:23;14.90;99.90
7214;DHT22;3648;50.614;13.830;2023-07-31T03:02:51;14.90;99.90
7214;DHT22;3648;50.614;13.830;2023-07-31T03:05:17;14.90;99.90
7214;DHT22;3648;50.614;13.830;2023-07-31T03:07:46;15.00;99.90
7214;DHT22;3648;50.614;13.830;2023-07-31T03:10:13;14.90;99.90
7214;DHT22;3648;50.614;13.830;2023-07-31T03:12:40;14.90;99.90
7214;DHT22;3648;50.614;13.830;2023-07-31T03:15:08;14.90;99.90
7214;DHT22;3648;50.614;13.830;2023-07-31T03:17:35;14.90;99.90
7214;DHT22;3648;50.614;13.830;2023-07-31T03:20:02;14.90;99.90
7214;DHT22;3648;50.614;13.830;2023-07-31T03:22:30;14.80;99.90
7214;DHT22;3648;50.614;13.830;2023-07-31T03:24:58;14.80;99.90
7214;DHT22;3648;50.614;13.830;2023-07-31T03:27:25;14.90;99.90
7214;DHT22;3648;50.614;13.830;2023-07-31T03:29:52;14.90;99.90
7214;DHT22;3648;50.614;13.830;2023-07-31T03:32:19;14.90;99.90
7214;DHT22;3648;50.614;13.830;2023-07-31T03:34:46;14.90;99.90
7214;DHT22;3648;50.614;13.830;2023-07-31T03:37:13;14.90;99.90
7214;DHT22;3648;50.614;13.830;2023-07-31T03:39:40;14.90;99.90
7214;DHT22;3648;50.614;13.830;2023-07-31T03:42:08;14.90;99.90
7214;DHT22;3648;50.614;13.830;2023-07-31T03:44:35;15.00;99.90
7214;DHT22;3648;50.614;13.830;2023-07-31T03:47:01;14.90;99.90
7214;DHT22;3648;50.614;13.830;2023-07-31T03:49:28;14.90;99.90
7214;DHT22;3648;50.614;13.830;2023-07-31T03:51:55;14.90;99.90
7214;DHT22;3648;50.614;13.830;2023-07-31T03:54:22;14.90;99.90
7214;DHT22;3648;50.614;13.830;2023-07-31T03:56:49;14.90;99.90
7214;DHT22;3648;50.614;13.830;2023-07-31T03:59:18;14.90;99.90
7214;DHT22;3648;50.614;13.830;2023-07-31T04:01:44;15.00;99.90
7214;DHT22;3648;50.614;13.830;2023-07-31T04:04:11;15.10;99.90
7214;DHT22;3648;50.614;13.830;2023-07-31T04:06:38;15.00;99.90
7214;DHT22;3648;50.614;13.830;2023-07-31T04:09:05;15.10;99.90
7214;DHT22;3648;50.614;13.830;2023-07-31T04:11:32;15.00;99.90
7214;DHT22;3648;50.614;13.830;2023-07-31T04:13:59;15.00;99.90
7214;DHT22;3648;50.614;13.830;2023-07-31T04:16:27;15.10;99.90
7214;DHT22;3648;50.614;13.830;2023-07-31T04:18:54;15.00;99.90
7214;DHT22;3648;50.614;13.830;2023-07-31T04:21:21;15.00;99.90
7214;DHT22;3648;50.614;13.830;2023-07-31T04:23:48;15.00;99.90
7214;DHT22;3648;50.614;13.830;2023-07-31T04:26:15;15.10;99.90
7214;DHT22;3648;50.614;13.830;2023-07-31T04:28:42;15.20;99.90
7214;DHT22;3648;50.614;13.830;2023-07-31T04:31:09;15.20;99.90
7214;DHT22;3648;50.614;13.830;2023-07-31T04:33:37;15.20;99.90
7214;DHT22;3648;50.614;13.830;2023-07-31T04:36:05;15.20;99.90
7214;DHT22;3648;50.614;13.830;2023-07-31T04:38:32;15.30;99.90
7214;DHT22;3648;50.614;13.830;2023-07-31T04:40:59;15.30;99.90
7214;DHT22;3648;50.614;13.830;2023-07-31T04:43:25;15.30;99.90
7214;DHT22;3648;50.614;13.830;2023-07-31T04:45:52;15.30;99.90
7214;DHT22;3648;50.614;13.830;2023-07-31T04:48:19;15.30;99.90
7214;DHT22;3648;50.614;13.830;2023-07-31T04:50:47;15.30;99.90
7214;DHT22;3648;50.614;13.830;2023-07-31T04:53:14;15.40;99.90
7214;DHT22;3648;50.614;13.830;2023-07-31T04:55:41;15.40;99.90
7214;DHT22;3648;50.614;13.830;2023-07-31T04:58:08;15.50;99.90
7214;DHT22;3648;50.614;13.830;2023-07-31T05:00:35;15.50;99.90
7214;DHT22;3648;50.614;13.830;2023-07-31T05:03:02;15.50;99.90
7214;DHT22;3648;50.614;13.830;2023-07-31T05:05:29;15.50;99.90
7214;DHT22;3648;50.614;13.830;2023-07-31T05:07:57;15.50;99.90
7214;DHT22;3648;50.614;13.830;2023-07-31T05:10:24;15.50;99.90
7214;DHT22;3648;50.614;13.830;2023-07-31T05:12:51;15.60;99.90
7214;DHT22;3648;50.614;13.830;2023-07-31T05:15:17;15.70;99.90
7214;DHT22;3648;50.614;13.830;2023-07-31T05:17:44;15.70;99.90
7214;DHT22;3648;50.614;13.830;2023-07-31T05:20:12;15.80;99.90
7214;DHT22;3648;50.614;13.830;2023-07-31T05:22:38;15.80;99.90
7214;DHT22;3648;50.614;13.830;2023-07-31T05:25:07;15.80;99.90
7214;DHT22;3648;50.614;13.830;2023-07-31T05:27:34;15.90;99.90
7214;DHT22;3648;50.614;13.830;2023-07-31T05:30:01;15.90;99.90
7214;DHT22;3648;50.614;13.830;2023-07-31T05:32:28;15.90;99.90
7214;DHT22;3648;50.614;13.830;2023-07-31T05:34:55;16.00;99.90
7214;DHT22;3648;50.614;13.830;2023-07-31T05:37:22;16.10;99.90
7214;DHT22;3648;50.614;13.830;2023-07-31T05:39:49;16.10;99.90
7214;DHT22;3648;50.614;13.830;2023-07-31T05:42:17;16.10;99.90
7214;DHT22;3648;50.614;13.830;2023-07-31T05:44:44;16.20;99.90
7214;DHT22;3648;50.614;13.830;2023-07-31T05:47:11;16.20;99.90
7214;DHT22;3648;50.614;13.830;2023-07-31T05:49:38;16.20;99.90
7214;DHT22;3648;50.614;13.830;2023-07-31T05:52:05;16.30;99.90
7214;DHT22;3648;50.614;13.830;2023-07-31T05:54:32;16.30;99.90
7214;DHT22;3648;50.614;13.830;2023-07-31T05:56:59;16.30;99.90
7214;DHT22;3648;50.614;13.830;2023-07-31T05:59:28;16.40;99.90
7214;DHT22;3648;50.614;13.830;2023-07-31T06:01:58;16.40;99.90
7214;DHT22;3648;50.614;13.830;2023-07-31T06:04:25;16.50;99.90
7214;DHT22;3648;50.614;13.830;2023-07-31T06:06:52;16.50;99.90
7214;DHT22;3648;50.614;13.830;2023-07-31T06:09:19;16.50;99.90
7214;DHT22;3648;50.614;13.830;2023-07-31T06:11:46;16.60;99.90
7214;DHT22;3648;50.614;13.830;2023-07-31T06:14:14;16.60;99.90
7214;DHT22;3648;50.614;13.830;2023-07-31T06:16:42;16.60;99.90
7214;DHT22;3648;50.614;13.830;2023-07-31T06:19:09;16.60;99.90
7214;DHT22;3648;50.614;13.830;2023-07-31T06:21:36;16.60;99.90
7214;DHT22;3648;50.614;13.830;2023-07-31T06:24:04;16.70;99.90
7214;DHT22;3648;50.614;13.830;2023-07-31T06:26:31;16.70;99.90
7214;DHT22;3648;50.614;13.830;2023-07-31T06:28:58;16.70;99.90
7214;DHT22;3648;50.614;13.830;2023-07-31T06:31:25;16.80;99.90
7214;DHT22;3648;50.614;13.830;2023-07-31T06:33:54;16.80;99.90
7214;DHT22;3648;50.614;13.830;2023-07-31T06:36:21;16.80;99.90
7214;DHT22;3648;50.614;13.830;2023-07-31T06:38:48;16.90;99.90
7214;DHT22;3648;50.614;13.830;2023-07-31T06:41:15;17.00;99.90
7214;DHT22;3648;50.614;13.830;2023-07-31T06:43:42;17.00;99.90
7214;DHT22;3648;50.614;13.830;2023-07-31T06:46:09;17.00;99.90
7214;DHT22;3648;50.614;13.830;2023-07-31T06:48:36;17.00;99.90
7214;DHT22;3648;50.614;13.830;2023-07-31T06:51:04;17.00;99.90
7214;DHT22;3648;50.614;13.830;2023-07-31T06:53:31;17.10;99.90
7214;DHT22;3648;50.614;13.830;2023-07-31T06:55:58;17.10;99.90
7214;DHT22;3648;50.614;13.830;2023-07-31T06:58:25;17.10;99.90
7214;DHT22;3648;50.614;13.830;2023-07-31T07:00:52;17.10;99.90
7214;DHT22;3648;50.614;13.830;2023-07-31T07:03:19;17.20;99.90
7214;DHT22;3648;50.614;13.830;2023-07-31T07:05:46;17.10;99.90
7214;DHT22;3648;50.614;13.830;2023-07-31T07:08:14;17.10;99.90
7214;DHT22;3648;50.614;13.830;2023-07-31T07:10:42;17.20;99.90
7214;DHT22;3648;50.614;13.830;2023-07-31T07:13:09;17.20;99.90
7214;DHT22;3648;50.614;13.830;2023-07-31T07:15:36;17.20;99.90
7214;DHT22;3648;50.614;13.830;2023-07-31T07:18:03;17.20;99.90
7214;DHT22;3648;50.614;13.830;2023-07-31T07:20:30;17.20;99.90
7214;DHT22;3648;50.614;13.830;2023-07-31T07:22:57;17.20;99.90
7214;DHT22;3648;50.614;13.830;2023-07-31T07:25:25;17.10;99.90
7214;DHT22;3648;50.614;13.830;2023-07-31T07:27:53;17.10;99.90
7214;DHT22;3648;50.614;13.830;2023-07-31T07:30:20;17.10;99.90
7214;DHT22;3648;50.614;13.830;2023-07-31T07:32:47;17.10;99.90
7214;DHT22;3648;50.614;13.830;2023-07-31T07:35:14;17.10;99.90
7214;DHT22;3648;50.614;13.830;2023-07-31T07:37:41;17.00;99.90
7214;DHT22;3648;50.614;13.830;2023-07-31T07:40:08;17.00;99.90
7214;DHT22;3648;50.614;13.830;2023-07-31T07:42:37;17.00;99.90
7214;DHT22;3648;50.614;13.830;2023-07-31T07:45:05;17.00;99.90
7214;DHT22;3648;50.614;13.830;2023-07-31T07:47:32;17.00;99.90
7214;DHT22;3648;50.614;13.830;2023-07-31T07:49:59;17.00;99.90
7214;DHT22;3648;50.614;13.830;2023-07-31T07:52:26;17.10;99.90
7214;DHT22;3648;50.614;13.830;2023-07-31T07:54:53;17.10;99.90
7214;DHT22;3648;50.614;13.830;2023-07-31T07:57:20;17.10;99.90
7214;DHT22;3648;50.614;13.830;2023-07-31T07:59:49;17.20;99.90
7214;DHT22;3648;50.614;13.830;2023-07-31T08:02:16;17.20;99.90
7214;DHT22;3648;50.614;13.830;2023-07-31T08:04:42;17.20;99.90
7214;DHT22;3648;50.614;13.830;2023-07-31T08:07:11;17.20;99.90
7214;DHT22;3648;50.614;13.830;2023-07-31T08:09:38;17.20;99.90
7214;DHT22;3648;50.614;13.830;2023-07-31T08:12:05;17.30;99.90
7214;DHT22;3648;50.614;13.830;2023-07-31T08:14:33;17.40;99.90
7214;DHT22;3648;50.614;13.830;2023-07-31T08:17:02;17.50;99.90
7214;DHT22;3648;50.614;13.830;2023-07-31T08:19:29;17.60;99.90
7214;DHT22;3648;50.614;13.830;2023-07-31T08:21:56;17.60;99.90
7214;DHT22;3648;50.614;13.830;2023-07-31T08:24:23;17.70;99.90
7214;DHT22;3648;50.614;13.830;2023-07-31T08:26:50;17.70;99.90
7214;DHT22;3648;50.614;13.830;2023-07-31T08:29:17;17.70;99.90
7214;DHT22;3648;50.614;13.830;2023-07-31T08:31:44;17.80;99.90
7214;DHT22;3648;50.614;13.830;2023-07-31T08:34:12;17.90;99.90
7214;DHT22;3648;50.614;13.830;2023-07-31T08:36:39;17.80;99.90
7214;DHT22;3648;50.614;13.830;2023-07-31T08:39:06;17.90;99.90
7214;DHT22;3648;50.614;13.830;2023-07-31T08:41:40;17.90;99.90
7214;DHT22;3648;50.614;13.830;2023-07-31T08:44:08;17.90;99.90
7214;DHT22;3648;50.614;13.830;2023-07-31T08:46:35;17.90;99.90
7214;DHT22;3648;50.614;13.830;2023-07-31T08:49:04;18.00;99.90
7214;DHT22;3648;50.614;13.830;2023-07-31T08:51:34;18.00;99.90
7214;DHT22;3648;50.614;13.830;2023-07-31T08:54:01;18.00;99.90
7214;DHT22;3648;50.614;13.830;2023-07-31T08:56:31;17.90;99.90
7214;DHT22;3648;50.614;13.830;2023-07-31T08:58:59;17.90;99.90
7214;DHT22;3648;50.614;13.830;2023-07-31T09:01:29;17.90;99.90
7214;DHT22;3648;50.614;13.830;2023-07-31T09:03:57;17.90;99.90
7214;DHT22;3648;50.614;13.830;2023-07-31T09:06:26;17.90;99.90
7214;DHT22;3648;50.614;13.830;2023-07-31T09:08:56;17.90;99.90
7214;DHT22;3648;50.614;13.830;2023-07-31T09:11:24;17.80;99.90
7214;DHT22;3648;50.614;13.830;2023-07-31T09:13:53;17.80;99.90
7214;DHT22;3648;50.614;13.830;2023-07-31T09:16:27;17.80;99.90
7214;DHT22;3648;50.614;13.830;2023-07-31T09:18:56;17.80;99.90
7214;DHT22;3648;50.614;13.830;2023-07-31T09:21:26;17.80;99.90
7214;DHT22;3648;50.614;13.830;2023-07-31T09:23:53;17.90;99.90
7214;DHT22;3648;50.614;13.830;2023-07-31T09:26:32;17.90;99.90
7214;DHT22;3648;50.614;13.830;2023-07-31T09:29:00;17.90;99.90
7214;DHT22;3648;50.614;13.830;2023-07-31T09:31:42;17.90;99.90
7214;DHT22;3648;50.614;13.830;2023-07-31T09:34:10;17.90;99.90
7214;DHT22;3648;50.614;13.830;2023-07-31T09:36:42;18.00;99.90
7214;DHT22;3648;50.614;13.830;2023-07-31T09:39:10;18.10;99.90
7214;DHT22;3648;50.614;13.830;2023-07-31T09:41:40;18.20;99.90
7214;DHT22;3648;50.614;13.830;2023-07-31T09:44:08;18.30;99.90
7214;DHT22;3648;50.614;13.830;2023-07-31T09:46:35;18.40;99.90
7214;DHT22;3648;50.614;13.830;2023-07-31T09:49:04;18.40;99.90
7214;DHT22;3648;50.614;13.830;2023-07-31T09:51:32;18.50;99.90
7214;DHT22;3648;50.614;13.830;2023-07-31T09:54:08;18.60;99.90
7214;DHT22;3648;50.614;13.830;2023-07-31T09:56:38;18.70;99.90
7214;DHT22;3648;50.614;13.830;2023-07-31T09:59:08;18.80;99.90
7214;DHT22;3648;50.614;13.830;2023-07-31T10:01:38;18.90;99.90
7214;DHT22;3648;50.614;13.830;2023-07-31T10:04:05;19.00;99.90
7214;DHT22;3648;50.614;13.830;2023-07-31T10:06:35;19.10;99.90
7214;DHT22;3648;50.614;13.830;2023-07-31T10:09:03;19.20;99.90
7214;DHT22;3648;50.614;13.830;2023-07-31T10:11:36;19.20;99.90
7214;DHT22;3648;50.614;13.830;2023-07-31T10:14:05;19.30;99.90
7214;DHT22;3648;50.614;13.830;2023-07-31T10:16:35;19.30;99.90
7214;DHT22;3648;50.614;13.830;2023-07-31T10:19:02;19.30;99.90
7214;DHT22;3648;50.614;13.830;2023-07-31T10:21:31;19.40;99.90
7214;DHT22;3648;50.614;13.830;2023-07-31T10:24:03;19.50;99.90
7214;DHT22;3648;50.614;13.830;2023-07-31T10:26:31;19.60;99.90
7214;DHT22;3648;50.614;13.830;2023-07-31T10:28:59;19.70;99.90
7214;DHT22;3648;50.614;13.830;2023-07-31T10:31:29;19.70;99.90
7214;DHT22;3648;50.614;13.830;2023-07-31T10:33:57;19.80;99.90
7214;DHT22;3648;50.614;13.830;2023-07-31T10:36:26;19.90;99.90
7214;DHT22;3648;50.614;13.830;2023-07-31T10:38:55;20.00;99.90
7214;DHT22;3648;50.614;13.830;2023-07-31T10:41:29;20.10;99.90
7214;DHT22;3648;50.614;13.830;2023-07-31T10:43:58;20.30;99.90
7214;DHT22;3648;50.614;13.830;2023-07-31T10:46:25;20.50;99.90
7214;DHT22;3648;50.614;13.830;2023-07-31T10:49:01;20.60;99.90
7214;DHT22;3648;50.614;13.830;2023-07-31T10:51:35;20.60;99.90
7214;DHT22;3648;50.614;13.830;2023-07-31T10:54:12;20.70;99.90
7214;DHT22;3648;50.614;13.830;2023-07-31T10:56:40;20.80;99.90
7214;DHT22;3648;50.614;13.830;2023-07-31T10:59:11;20.90;99.90
7214;DHT22;3648;50.614;13.830;2023-07-31T11:01:52;20.90;99.90
7214;DHT22;3648;50.614;13.830;2023-07-31T11:04:25;21.00;99.90
7214;DHT22;3648;50.614;13.830;2023-07-31T11:06:56;21.00;99.90
7214;DHT22;3648;50.614;13.830;2023-07-31T11:09:24;21.10;99.90
7214;DHT22;3648;50.614;13.830;2023-07-31T11:11:53;21.20;99.90
7214;DHT22;3648;50.614;13.830;2023-07-31T11:14:20;21.20;99.90
7214;DHT22;3648;50.614;13.830;2023-07-31T11:16:50;21.40;99.90
7214;DHT22;3648;50.614;13.830;2023-07-31T11:19:21;21.40;99.90
7214;DHT22;3648;50.614;13.830;2023-07-31T11:21:50;21.40;99.90
7214;DHT22;3648;50.614;13.830;2023-07-31T11:24:18;21.50;99.90
7214;DHT22;3648;50.614;13.830;2023-07-31T11:26:50;21.60;99.90
7214;DHT22;3648;50.614;13.830;2023-07-31T11:29:17;21.70;99.90
7214;DHT22;3648;50.614;13.830;2023-07-31T11:31:44;21.90;99.90
7214;DHT22;3648;50.614;13.830;2023-07-31T11:34:12;22.00;99.90
7214;DHT22;3648;50.614;13.830;2023-07-31T11:36:39;22.10;99.90
7214;DHT22;3648;50.614;13.830;2023-07-31T11:39:08;22.20;99.90
7214;DHT22;3648;50.614;13.830;2023-07-31T11:41:35;22.20;99.90
7214;DHT22;3648;50.614;13.830;2023-07-31T11:44:03;22.30;99.90
7214;DHT22;3648;50.614;13.830;2023-07-31T11:46:30;22.30;99.90
7214;DHT22;3648;50.614;13.830;2023-07-31T11:48:59;22.20;99.90
7214;DHT22;3648;50.614;13.830;2023-07-31T11:51:27;22.10;99.90
7214;DHT22;3648;50.614;13.830;2023-07-31T11:53:58;22.00;99.90
7214;DHT22;3648;50.614;13.830;2023-07-31T11:56:29;22.00;99.90
7214;DHT22;3648;50.614;13.830;2023-07-31T11:58:58;22.00;99.90
7214;DHT22;3648;50.614;13.830;2023-07-31T12:01:26;22.00;99.90
7214;DHT22;3648;50.614;13.830;2023-07-31T12:03:54;21.90;99.90
7214;DHT22;3648;50.614;13.830;2023-07-31T12:06:22;21.90;99.90
7214;DHT22;3648;50.614;13.830;2023-07-31T12:09:01;22.00;99.90
7214;DHT22;3648;50.614;13.830;2023-07-31T12:11:30;22.10;99.90
7214;DHT22;3648;50.614;13.830;2023-07-31T12:13:57;22.10;99.90
7214;DHT22;3648;50.614;13.830;2023-07-31T12:16:26;22.10;99.90
7214;DHT22;3648;50.614;13.830;2023-07-31T12:18:54;22.10;99.90
7214;DHT22;3648;50.614;13.830;2023-07-31T12:21:21;22.10;99.90
7214;DHT22;3648;50.614;13.830;2023-07-31T12:23:48;22.20;99.90
7214;DHT22;3648;50.614;13.830;2023-07-31T12:26:16;22.20;99.90
7214;DHT22;3648;50.614;13.830;2023-07-31T12:28:46;22.20;99.90
7214;DHT22;3648;50.614;13.830;2023-07-31T12:31:15;22.30;99.90
7214;DHT22;3648;50.614;13.830;2023-07-31T12:33:43;22.30;99.90
7214;DHT22;3648;50.614;13.830;2023-07-31T12:36:12;22.40;99.90
7214;DHT22;3648;50.614;13.830;2023-07-31T12:38:39;22.40;99.90
7214;DHT22;3648;50.614;13.830;2023-07-31T12:41:06;22.40;99.90
7214;DHT22;3648;50.614;13.830;2023-07-31T12:43:34;22.40;99.90
7214;DHT22;3648;50.614;13.830;2023-07-31T12:46:02;22.40;99.90
7214;DHT22;3648;50.614;13.830;2023-07-31T12:48:29;22.40;99.90
7214;DHT22;3648;50.614;13.830;2023-07-31T12:50:56;22.40;99.90
7214;DHT22;3648;50.614;13.830;2023-07-31T12:53:23;22.50;99.90
7214;DHT22;3648;50.614;13.830;2023-07-31T12:55:50;22.50;99.90
7214;DHT22;3648;50.614;13.830;2023-07-31T12:58:17;22.60;99.90
7214;DHT22;3648;50.614;13.830;2023-07-31T13:00:44;22.60;99.90
7214;DHT22;3648;50.614;13.830;2023-07-31T13:03:13;22.50;99.90
7214;DHT22;3648;50.614;13.830;2023-07-31T13:05:40;22.40;99.90
7214;DHT22;3648;50.614;13.830;2023-07-31T13:08:07;22.40;99.90
7214;DHT22;3648;50.614;13.830;2023-07-31T13:10:34;22.30;99.90
7214;DHT22;3648;50.614;13.830;2023-07-31T13:13:01;22.30;99.90
7214;DHT22;3648;50.614;13.830;2023-07-31T13:15:28;22.40;99.90
7214;DHT22;3648;50.614;13.830;2023-07-31T13:17:55;22.30;99.90
7214;DHT22;3648;50.614;13.830;2023-07-31T13:20:24;22.40;99.90
7214;DHT22;3648;50.614;13.830;2023-07-31T13:22:50;22.40;99.90
7214;DHT22;3648;50.614;13.830;2023-07-31T13:25:18;22.50;99.90
7214;DHT22;3648;50.614;13.830;2023-07-31T13:27:45;22.60;99.90
7214;DHT22;3648;50.614;13.830;2023-07-31T13:30:12;22.80;99.90
7214;DHT22;3648;50.614;13.830;2023-07-31T13:32:39;22.80;99.90
7214;DHT22;3648;50.614;13.830;2023-07-31T13:35:07;22.90;99.90
7214;DHT22;3648;50.614;13.830;2023-07-31T13:37:36;22.90;99.90
7214;DHT22;3648;50.614;13.830;2023-07-31T13:40:04;23.00;99.90
7214;DHT22;3648;50.614;13.830;2023-07-31T13:42:31;23.00;99.90
7214;DHT22;3648;50.614;13.830;2023-07-31T13:44:58;23.00;99.90
7214;DHT22;3648;50.614;13.830;2023-07-31T13:47:25;22.90;99.90
7214;DHT22;3648;50.614;13.830;2023-07-31T13:49:52;22.90;99.90
7214;DHT22;3648;50.614;13.830;2023-07-31T13:52:19;22.80;99.90
7214;DHT22;3648;50.614;13.830;2023-07-31T13:54:48;22.80;99.90
7214;DHT22;3648;50.614;13.830;2023-07-31T13:57:15;22.80;99.90
7214;DHT22;3648;50.614;13.830;2023-07-31T13:59:42;22.80;99.90
7214;DHT22;3648;50.614;13.830;2023-07-31T14:02:09;22.80;99.90
7214;DHT22;3648;50.614;13.830;2023-07-31T14:04:36;22.80;99.90
7214;DHT22;3648;50.614;13.830;2023-07-31T14:07:04;22.80;99.90
7214;DHT22;3648;50.614;13.830;2023-07-31T14:09:31;22.80;99.90
7214;DHT22;3648;50.614;13.830;2023-07-31T14:11:59;22.80;99.90
7214;DHT22;3648;50.614;13.830;2023-07-31T14:14:26;22.70;99.90
7214;DHT22;3648;50.614;13.830;2023-07-31T14:16:53;22.70;99.90
7214;DHT22;3648;50.614;13.830;2023-07-31T14:19:20;22.70;99.90
7214;DHT22;3648;50.614;13.830;2023-07-31T14:21:47;22.90;99.90
7214;DHT22;3648;50.614;13.830;2023-07-31T14:24:14;22.90;99.90
7214;DHT22;3648;50.614;13.830;2023-07-31T14:26:41;23.00;99.90
7214;DHT22;3648;50.614;13.830;2023-07-31T14:29:09;23.10;99.90
7214;DHT22;3648;50.614;13.830;2023-07-31T14:31:36;23.10;99.90
7214;DHT22;3648;50.614;13.830;2023-07-31T14:34:03;23.00;99.90
7214;DHT22;3648;50.614;13.830;2023-07-31T14:36:30;23.00;99.90
7214;DHT22;3648;50.614;13.830;2023-07-31T14:38:57;23.00;99.90
7214;DHT22;3648;50.614;13.830;2023-07-31T14:41:24;23.10;99.90
7214;DHT22;3648;50.614;13.830;2023-07-31T14:43:51;22.90;99.90
7214;DHT22;3648;50.614;13.830;2023-07-31T14:46:20;22.90;99.90
7214;DHT22;3648;50.614;13.830;2023-07-31T14:48:47;23.00;99.90
7214;DHT22;3648;50.614;13.830;2023-07-31T14:51:14;23.10;99.90
7214;DHT22;3648;50.614;13.830;2023-07-31T14:53:43;23.20;99.90
7214;DHT22;3648;50.614;13.830;2023-07-31T14:56:10;23.30;99.90
7214;DHT22;3648;50.614;13.830;2023-07-31T14:58:37;23.50;99.90
7214;DHT22;3648;50.614;13.830;2023-07-31T15:01:04;23.40;99.90
7214;DHT22;3648;50.614;13.830;2023-07-31T15:03:33;23.30;99.90
7214;DHT22;3648;50.614;13.830;2023-07-31T15:06:00;23.40;99.90
7214;DHT22;3648;50.614;13.830;2023-07-31T15:08:27;23.50;99.90
7214;DHT22;3648;50.614;13.830;2023-07-31T15:10:54;23.60;99.90
7214;DHT22;3648;50.614;13.830;2023-07-31T15:13:23;23.60;99.90
7214;DHT22;3648;50.614;13.830;2023-07-31T15:15:50;23.60;99.90
7214;DHT22;3648;50.614;13.830;2023-07-31T15:18:17;23.70;99.90
7214;DHT22;3648;50.614;13.830;2023-07-31T15:20:46;23.70;99.90
7214;DHT22;3648;50.614;13.830;2023-07-31T15:23:13;23.50;99.90
7214;DHT22;3648;50.614;13.830;2023-07-31T15:25:40;23.40;99.90
7214;DHT22;3648;50.614;13.830;2023-07-31T15:28:08;23.30;99.90
7214;DHT22;3648;50.614;13.830;2023-07-31T15:30:35;23.10;99.90
7214;DHT22;3648;50.614;13.830;2023-07-31T15:33:03;23.00;99.90
7214;DHT22;3648;50.614;13.830;2023-07-31T15:35:30;23.00;99.90
7214;DHT22;3648;50.614;13.830;2023-07-31T15:37:58;23.00;99.90
7214;DHT22;3648;50.614;13.830;2023-07-31T15:40:25;22.90;99.90
7214;DHT22;3648;50.614;13.830;2023-07-31T15:42:52;22.80;99.90
7214;DHT22;3648;50.614;13.830;2023-07-31T15:45:20;22.80;99.90
7214;DHT22;3648;50.614;13.830;2023-07-31T15:47:48;22.80;99.90